sensor_id;sensor_type;location;lat;lon;timestamp;P1;durP1;ratioP1;P2;durP2;ratioP2
58697;SDS011;44475;53.206;-6.106;2023-02-04T00:01:40;9.40;;;4.40;;
58697;SDS011;44475;53.206;-6.106;2023-02-04T00:04:06;7.93;;;4.25;;
58697;SDS011;44475;53.206;-6.106;2023-02-04T00:06:33;8.80;;;4.35;;
58697;SDS011;44475;53.206;-6.106;2023-02-04T00:08:59;6.70;;;4.10;;
58697;SDS011;44475;53.206;-6.106;2023-02-04T00:11:25;7.78;;;4.00;;
58697;SDS011;44475;53.206;-6.106;2023-02-04T00:13:51;10.88;;;4.10;;
58697;SDS011;44475;53.206;-6.106;2023-02-04T00:16:18;8.90;;;4.00;;
58697;SDS011;44475;53.206;-6.106;2023-02-04T00:18:44;7.78;;;4.10;;
58697;SDS011;44475;53.206;-6.106;2023-02-04T00:21:10;6.38;;;3.72;;
58697;SDS011;44475;53.206;-6.106;2023-02-04T00:23:36;6.72;;;3.60;;
58697;SDS011;44475;53.206;-6.106;2023-02-04T00:26:03;6.90;;;3.85;;
58697;SDS011;44475;53.206;-6.106;2023-02-04T00:28:29;6.78;;;3.88;;
58697;SDS011;44475;53.206;-6.106;2023-02-04T00:30:55;5.63;;;3.83;;
58697;SDS011;44475;53.206;-6.106;2023-02-04T00:33:21;7.82;;;3.50;;
58697;SDS011;44475;53.206;-6.106;2023-02-04T00:35:48;5.43;;;3.40;;
58697;SDS011;44475;53.206;-6.106;2023-02-04T00:38:14;7.30;;;3.50;;
58697;SDS011;44475;53.206;-6.106;2023-02-04T00:40:40;6.07;;;3.40;;
58697;SDS011;44475;53.206;-6.106;2023-02-04T00:43:06;7.55;;;3.60;;
58697;SDS011;44475;53.206;-6.106;2023-02-04T00:45:33;5.20;;;3.25;;
58697;SDS011;44475;53.206;-6.106;2023-02-04T00:47:59;6.60;;;4.00;;
58697;SDS011;44475;53.206;-6.106;2023-02-04T00:50:25;5.25;;;3.33;;
58697;SDS011;44475;53.206;-6.106;2023-02-04T00:52:51;7.53;;;3.55;;
58697;SDS011;44475;53.206;-6.106;2023-02-04T00:55:18;6.43;;;3.10;;
58697;SDS011;44475;53.206;-6.106;2023-02-04T00:57:44;5.93;;;3.17;;
58697;SDS011;44475;53.206;-6.106;2023-02-04T01:00:15;5.30;;;3.25;;
58697;SDS011;44475;53.206;-6.106;2023-02-04T01:02:42;5.90;;;3.35;;
58697;SDS011;44475;53.206;-6.106;2023-02-04T01:05:08;4.95;;;2.90;;
58697;SDS011;44475;53.206;-6.106;2023-02-04T01:07:36;4.95;;;2.92;;
58697;SDS011;44475;53.206;-6.106;2023-02-04T01:10:02;4.13;;;2.88;;
58697;SDS011;44475;53.206;-6.106;2023-02-04T01:12:29;6.32;;;2.90;;
58697;SDS011;44475;53.206;-6.106;2023-02-04T01:14:55;4.20;;;2.92;;
58697;SDS011;44475;53.206;-6.106;2023-02-04T01:17:23;5.70;;;2.90;;
58697;SDS011;44475;53.206;-6.106;2023-02-04T01:19:52;4.28;;;2.80;;
58697;SDS011;44475;53.206;-6.106;2023-02-04T01:22:18;4.30;;;2.72;;
58697;SDS011;44475;53.206;-6.106;2023-02-04T01:24:45;4.55;;;2.60;;
58697;SDS011;44475;53.206;-6.106;2023-02-04T01:27:31;4.63;;;2.60;;
58697;SDS011;44475;53.206;-6.106;2023-02-04T01:29:57;6.95;;;2.80;;
58697;SDS011;44475;53.206;-6.106;2023-02-04T01:32:24;3.90;;;2.50;;
58697;SDS011;44475;53.206;-6.106;2023-02-04T01:34:50;6.53;;;2.80;;
58697;SDS011;44475;53.206;-6.106;2023-02-04T01:37:17;3.65;;;2.42;;
58697;SDS011;44475;53.206;-6.106;2023-02-04T01:39:43;3.90;;;2.40;;
58697;SDS011;44475;53.206;-6.106;2023-02-04T01:42:09;3.90;;;2.42;;
58697;SDS011;44475;53.206;-6.106;2023-02-04T01:44:36;4.72;;;2.63;;
58697;SDS011;44475;53.206;-6.106;2023-02-04T01:47:03;5.05;;;2.55;;
58697;SDS011;44475;53.206;-6.106;2023-02-04T01:49:31;3.80;;;2.33;;
58697;SDS011;44475;53.206;-6.106;2023-02-04T01:51:57;3.83;;;2.45;;
58697;SDS011;44475;53.206;-6.106;2023-02-04T01:54:24;4.88;;;2.42;;
58697;SDS011;44475;53.206;-6.106;2023-02-04T01:56:51;6.60;;;2.63;;
58697;SDS011;44475;53.206;-6.106;2023-02-04T01:59:19;7.30;;;2.42;;
58697;SDS011;44475;53.206;-6.106;2023-02-04T02:01:49;3.50;;;2.20;;
58697;SDS011;44475;53.206;-6.106;2023-02-04T02:04:18;6.55;;;2.30;;
58697;SDS011;44475;53.206;-6.106;2023-02-04T02:06:52;5.57;;;2.25;;
58697;SDS011;44475;53.206;-6.106;2023-02-04T02:09:23;7.53;;;2.42;;
58697;SDS011;44475;53.206;-6.106;2023-02-04T02:11:50;7.03;;;2.60;;
58697;SDS011;44475;53.206;-6.106;2023-02-04T02:14:17;5.55;;;2.20;;
58697;SDS011;44475;53.206;-6.106;2023-02-04T02:16:44;6.85;;;2.38;;
58697;SDS011;44475;53.206;-6.106;2023-02-04T02:19:11;8.73;;;2.60;;
58697;SDS011;44475;53.206;-6.106;2023-02-04T02:21:43;8.70;;;2.17;;
58697;SDS011;44475;53.206;-6.106;2023-02-04T02:24:27;5.07;;;2.20;;
58697;SDS011;44475;53.206;-6.106;2023-02-04T02:26:56;6.80;;;2.42;;
58697;SDS011;44475;53.206;-6.106;2023-02-04T02:29:29;4.00;;;2.20;;
58697;SDS011;44475;53.206;-6.106;2023-02-04T02:31:55;11.55;;;2.40;;
58697;SDS011;44475;53.206;-6.106;2023-02-04T02:34:25;12.30;;;2.58;;
58697;SDS011;44475;53.206;-6.106;2023-02-04T02:36:52;4.60;;;2.10;;
58697;SDS011;44475;53.206;-6.106;2023-02-04T02:39:19;4.63;;;2.00;;
58697;SDS011;44475;53.206;-6.106;2023-02-04T02:41:46;6.40;;;2.20;;
58697;SDS011;44475;53.206;-6.106;2023-02-04T02:44:13;4.68;;;2.08;;
58697;SDS011;44475;53.206;-6.106;2023-02-04T02:46:42;5.25;;;2.15;;
58697;SDS011;44475;53.206;-6.106;2023-02-04T02:49:13;5.13;;;2.13;;
58697;SDS011;44475;53.206;-6.106;2023-02-04T02:51:42;6.68;;;2.28;;
58697;SDS011;44475;53.206;-6.106;2023-02-04T02:54:17;7.60;;;2.10;;
58697;SDS011;44475;53.206;-6.106;2023-02-04T02:56:54;6.15;;;2.15;;
58697;SDS011;44475;53.206;-6.106;2023-02-04T02:59:22;4.28;;;1.65;;
58697;SDS011;44475;53.206;-6.106;2023-02-04T03:02:00;7.68;;;2.25;;
58697;SDS011;44475;53.206;-6.106;2023-02-04T03:04:31;3.17;;;1.98;;
58697;SDS011;44475;53.206;-6.106;2023-02-04T03:07:02;6.10;;;2.05;;
58697;SDS011;44475;53.206;-6.106;2023-02-04T03:09:29;5.55;;;1.90;;
58697;SDS011;44475;53.206;-6.106;2023-02-04T03:11:55;3.28;;;1.85;;
58697;SDS011;44475;53.206;-6.106;2023-02-04T03:14:21;5.30;;;2.08;;
58697;SDS011;44475;53.206;-6.106;2023-02-04T03:16:50;3.47;;;1.88;;
58697;SDS011;44475;53.206;-6.106;2023-02-04T03:19:19;4.45;;;2.05;;
58697;SDS011;44475;53.206;-6.106;2023-02-04T03:21:47;3.80;;;1.80;;
58697;SDS011;44475;53.206;-6.106;2023-02-04T03:24:13;4.13;;;2.00;;
58697;SDS011;44475;53.206;-6.106;2023-02-04T03:26:40;5.53;;;1.83;;
58697;SDS011;44475;53.206;-6.106;2023-02-04T03:29:07;3.72;;;1.80;;
58697;SDS011;44475;53.206;-6.106;2023-02-04T03:31:35;5.22;;;2.10;;
58697;SDS011;44475;53.206;-6.106;2023-02-04T03:34:04;4.85;;;2.17;;
58697;SDS011;44475;53.206;-6.106;2023-02-04T03:36:31;3.83;;;1.70;;
58697;SDS011;44475;53.206;-6.106;2023-02-04T03:38:57;3.13;;;1.70;;
58697;SDS011;44475;53.206;-6.106;2023-02-04T03:41:24;3.80;;;1.67;;
58697;SDS011;44475;53.206;-6.106;2023-02-04T03:43:50;5.47;;;1.80;;
58697;SDS011;44475;53.206;-6.106;2023-02-04T03:46:16;2.88;;;1.60;;
58697;SDS011;44475;53.206;-6.106;2023-02-04T03:48:42;4.63;;;1.63;;
58697;SDS011;44475;53.206;-6.106;2023-02-04T03:51:09;3.88;;;1.85;;
58697;SDS011;44475;53.206;-6.106;2023-02-04T03:53:35;2.28;;;1.42;;
58697;SDS011;44475;53.206;-6.106;2023-02-04T03:56:01;4.43;;;2.00;;
58697;SDS011;44475;53.206;-6.106;2023-02-04T03:58:27;2.50;;;1.60;;
58697;SDS011;44475;53.206;-6.106;2023-02-04T04:00:54;4.07;;;1.65;;
58697;SDS011;44475;53.206;-6.106;2023-02-04T04:03:20;2.63;;;1.60;;
58697;SDS011;44475;53.206;-6.106;2023-02-04T04:05:46;1.92;;;1.48;;
58697;SDS011;44475;53.206;-6.106;2023-02-04T04:08:12;3.40;;;1.98;;
58697;SDS011;44475;53.206;-6.106;2023-02-04T04:10:39;2.78;;;1.60;;
58697;SDS011;44475;53.206;-6.106;2023-02-04T04:13:05;3.05;;;1.50;;
58697;SDS011;44475;53.206;-6.106;2023-02-04T04:15:31;2.35;;;1.50;;
58697;SDS011;44475;53.206;-6.106;2023-02-04T04:17:58;4.00;;;1.70;;
58697;SDS011;44475;53.206;-6.106;2023-02-04T04:20:24;2.85;;;1.60;;
58697;SDS011;44475;53.206;-6.106;2023-02-04T04:22:52;3.00;;;1.60;;
58697;SDS011;44475;53.206;-6.106;2023-02-04T04:25:18;1.60;;;1.33;;
58697;SDS011;44475;53.206;-6.106;2023-02-04T04:27:45;2.38;;;1.40;;
58697;SDS011;44475;53.206;-6.106;2023-02-04T04:30:11;2.90;;;1.40;;
58697;SDS011;44475;53.206;-6.106;2023-02-04T04:32:37;3.33;;;1.60;;
58697;SDS011;44475;53.206;-6.106;2023-02-04T04:35:04;2.05;;;1.50;;
58697;SDS011;44475;53.206;-6.106;2023-02-04T04:37:30;2.25;;;1.45;;
58697;SDS011;44475;53.206;-6.106;2023-02-04T04:39:58;2.75;;;1.50;;
58697;SDS011;44475;53.206;-6.106;2023-02-04T04:42:25;1.92;;;1.50;;
58697;SDS011;44475;53.206;-6.106;2023-02-04T04:44:52;2.35;;;1.40;;
58697;SDS011;44475;53.206;-6.106;2023-02-04T04:47:18;2.67;;;1.40;;
58697;SDS011;44475;53.206;-6.106;2023-02-04T04:49:44;1.95;;;1.38;;
58697;SDS011;44475;53.206;-6.106;2023-02-04T04:52:10;1.67;;;1.30;;
58697;SDS011;44475;53.206;-6.106;2023-02-04T04:54:36;1.85;;;1.40;;
58697;SDS011;44475;53.206;-6.106;2023-02-04T04:57:03;1.88;;;1.40;;
58697;SDS011;44475;53.206;-6.106;2023-02-04T04:59:29;1.63;;;1.30;;
58697;SDS011;44475;53.206;-6.106;2023-02-04T05:01:55;2.17;;;1.50;;
58697;SDS011;44475;53.206;-6.106;2023-02-04T05:04:21;1.80;;;1.27;;
58697;SDS011;44475;53.206;-6.106;2023-02-04T05:06:47;1.65;;;1.20;;
58697;SDS011;44475;53.206;-6.106;2023-02-04T05:09:14;1.65;;;1.30;;
58697;SDS011;44475;53.206;-6.106;2023-02-04T05:11:41;3.20;;;1.33;;
58697;SDS011;44475;53.206;-6.106;2023-02-04T05:14:07;1.70;;;1.10;;
58697;SDS011;44475;53.206;-6.106;2023-02-04T05:16:33;2.00;;;1.50;;
58697;SDS011;44475;53.206;-6.106;2023-02-04T05:19:00;2.28;;;1.48;;
58697;SDS011;44475;53.206;-6.106;2023-02-04T05:21:26;3.60;;;1.50;;
58697;SDS011;44475;53.206;-6.106;2023-02-04T05:23:52;1.75;;;1.30;;
58697;SDS011;44475;53.206;-6.106;2023-02-04T05:26:18;2.58;;;1.30;;
58697;SDS011;44475;53.206;-6.106;2023-02-04T05:28:45;1.88;;;1.20;;
58697;SDS011;44475;53.206;-6.106;2023-02-04T05:31:11;2.20;;;1.30;;
58697;SDS011;44475;53.206;-6.106;2023-02-04T05:33:37;3.58;;;1.50;;
58697;SDS011;44475;53.206;-6.106;2023-02-04T05:36:03;2.53;;;1.30;;
58697;SDS011;44475;53.206;-6.106;2023-02-04T05:38:30;2.15;;;1.40;;
58697;SDS011;44475;53.206;-6.106;2023-02-04T05:40:56;2.40;;;1.33;;
58697;SDS011;44475;53.206;-6.106;2023-02-04T05:43:22;1.40;;;1.30;;
58697;SDS011;44475;53.206;-6.106;2023-02-04T05:45:48;3.08;;;1.30;;
58697;SDS011;44475;53.206;-6.106;2023-02-04T05:48:15;2.65;;;1.40;;
58697;SDS011;44475;53.206;-6.106;2023-02-04T05:50:41;1.73;;;1.15;;
58697;SDS011;44475;53.206;-6.106;2023-02-04T05:53:07;1.20;;;1.10;;
58697;SDS011;44475;53.206;-6.106;2023-02-04T05:55:34;1.58;;;1.25;;
58697;SDS011;44475;53.206;-6.106;2023-02-04T05:58:00;5.30;;;1.30;;
58697;SDS011;44475;53.206;-6.106;2023-02-04T06:00:26;2.30;;;1.10;;
58697;SDS011;44475;53.206;-6.106;2023-02-04T06:02:52;1.30;;;1.17;;
58697;SDS011;44475;53.206;-6.106;2023-02-04T06:05:19;1.83;;;1.30;;
58697;SDS011;44475;53.206;-6.106;2023-02-04T06:07:47;1.40;;;1.20;;
58697;SDS011;44475;53.206;-6.106;2023-02-04T06:10:13;2.17;;;1.30;;
58697;SDS011;44475;53.206;-6.106;2023-02-04T06:12:40;1.10;;;1.10;;
58697;SDS011;44475;53.206;-6.106;2023-02-04T06:15:06;1.73;;;1.15;;
58697;SDS011;44475;53.206;-6.106;2023-02-04T06:17:32;1.67;;;1.15;;
58697;SDS011;44475;53.206;-6.106;2023-02-04T06:19:59;1.45;;;1.20;;
58697;SDS011;44475;53.206;-6.106;2023-02-04T06:22:25;1.67;;;1.30;;
58697;SDS011;44475;53.206;-6.106;2023-02-04T06:24:51;1.65;;;1.10;;
58697;SDS011;44475;53.206;-6.106;2023-02-04T06:27:18;1.27;;;1.17;;
58697;SDS011;44475;53.206;-6.106;2023-02-04T06:29:51;1.38;;;1.10;;
58697;SDS011;44475;53.206;-6.106;2023-02-04T06:32:18;1.60;;;1.20;;
58697;SDS011;44475;53.206;-6.106;2023-02-04T06:34:44;1.30;;;1.20;;
58697;SDS011;44475;53.206;-6.106;2023-02-04T06:37:11;1.40;;;1.20;;
58697;SDS011;44475;53.206;-6.106;2023-02-04T06:39:38;2.33;;;1.20;;
58697;SDS011;44475;53.206;-6.106;2023-02-04T06:42:04;1.20;;;1.10;;
58697;SDS011;44475;53.206;-6.106;2023-02-04T06:44:30;1.45;;;1.20;;
58697;SDS011;44475;53.206;-6.106;2023-02-04T06:46:57;1.45;;;1.20;;
58697;SDS011;44475;53.206;-6.106;2023-02-04T06:49:23;1.52;;;1.20;;
58697;SDS011;44475;53.206;-6.106;2023-02-04T06:51:50;1.10;;;1.00;;
58697;SDS011;44475;53.206;-6.106;2023-02-04T06:54:16;1.85;;;1.30;;
58697;SDS011;44475;53.206;-6.106;2023-02-04T06:56:43;1.10;;;1.00;;
58697;SDS011;44475;53.206;-6.106;2023-02-04T06:59:09;1.17;;;1.02;;
58697;SDS011;44475;53.206;-6.106;2023-02-04T07:01:36;1.38;;;1.08;;
58697;SDS011;44475;53.206;-6.106;2023-02-04T07:04:02;1.73;;;1.30;;
58697;SDS011;44475;53.206;-6.106;2023-02-04T07:06:28;2.90;;;1.25;;
58697;SDS011;44475;53.206;-6.106;2023-02-04T07:08:55;1.52;;;1.10;;
58697;SDS011;44475;53.206;-6.106;2023-02-04T07:11:21;1.30;;;1.13;;
58697;SDS011;44475;53.206;-6.106;2023-02-04T07:13:47;1.35;;;1.00;;
58697;SDS011;44475;53.206;-6.106;2023-02-04T07:16:13;1.35;;;1.25;;
58697;SDS011;44475;53.206;-6.106;2023-02-04T07:18:39;1.52;;;1.20;;
58697;SDS011;44475;53.206;-6.106;2023-02-04T07:21:06;1.13;;;1.00;;
58697;SDS011;44475;53.206;-6.106;2023-02-04T07:23:32;2.67;;;1.20;;
58697;SDS011;44475;53.206;-6.106;2023-02-04T07:25:58;1.20;;;1.10;;
58697;SDS011;44475;53.206;-6.106;2023-02-04T07:28:24;1.58;;;1.10;;
58697;SDS011;44475;53.206;-6.106;2023-02-04T07:30:51;2.60;;;1.17;;
58697;SDS011;44475;53.206;-6.106;2023-02-04T07:33:17;1.50;;;1.10;;
58697;SDS011;44475;53.206;-6.106;2023-02-04T07:35:43;1.35;;;1.00;;
58697;SDS011;44475;53.206;-6.106;2023-02-04T07:38:09;1.27;;;1.10;;
58697;SDS011;44475;53.206;-6.106;2023-02-04T07:40:36;3.22;;;1.10;;
58697;SDS011;44475;53.206;-6.106;2023-02-04T07:43:03;1.20;;;1.10;;
58697;SDS011;44475;53.206;-6.106;2023-02-04T07:45:31;1.98;;;1.20;;
58697;SDS011;44475;53.206;-6.106;2023-02-04T07:47:57;3.13;;;1.20;;
58697;SDS011;44475;53.206;-6.106;2023-02-04T07:50:23;4.85;;;1.40;;
58697;SDS011;44475;53.206;-6.106;2023-02-04T07:52:50;6.70;;;1.30;;
58697;SDS011;44475;53.206;-6.106;2023-02-04T07:55:16;5.20;;;1.13;;
58697;SDS011;44475;53.206;-6.106;2023-02-04T07:57:42;4.45;;;1.20;;
58697;SDS011;44475;53.206;-6.106;2023-02-04T08:00:09;2.88;;;1.27;;
58697;SDS011;44475;53.206;-6.106;2023-02-04T08:02:38;2.75;;;1.30;;
58697;SDS011;44475;53.206;-6.106;2023-02-04T08:05:06;5.85;;;1.15;;
58697;SDS011;44475;53.206;-6.106;2023-02-04T08:07:33;2.45;;;1.20;;
58697;SDS011;44475;53.206;-6.106;2023-02-04T08:09:59;4.10;;;1.00;;
58697;SDS011;44475;53.206;-6.106;2023-02-04T08:12:26;4.72;;;1.30;;
58697;SDS011;44475;53.206;-6.106;2023-02-04T08:14:52;2.63;;;1.20;;
58697;SDS011;44475;53.206;-6.106;2023-02-04T08:17:18;5.03;;;1.55;;
58697;SDS011;44475;53.206;-6.106;2023-02-04T08:19:45;3.10;;;1.20;;
58697;SDS011;44475;53.206;-6.106;2023-02-04T08:22:11;5.60;;;1.48;;
58697;SDS011;44475;53.206;-6.106;2023-02-04T08:24:38;5.15;;;1.30;;
58697;SDS011;44475;53.206;-6.106;2023-02-04T08:27:04;1.88;;;1.10;;
58697;SDS011;44475;53.206;-6.106;2023-02-04T08:29:30;2.78;;;1.45;;
58697;SDS011;44475;53.206;-6.106;2023-02-04T08:31:56;3.15;;;1.30;;
58697;SDS011;44475;53.206;-6.106;2023-02-04T08:34:23;1.88;;;1.02;;
58697;SDS011;44475;53.206;-6.106;2023-02-04T08:36:49;2.60;;;1.30;;
58697;SDS011;44475;53.206;-6.106;2023-02-04T08:39:15;5.30;;;1.20;;
58697;SDS011;44475;53.206;-6.106;2023-02-04T08:41:42;2.33;;;1.30;;
58697;SDS011;44475;53.206;-6.106;2023-02-04T08:44:08;2.50;;;1.20;;
58697;SDS011;44475;53.206;-6.106;2023-02-04T08:46:34;1.85;;;1.10;;
58697;SDS011;44475;53.206;-6.106;2023-02-04T08:49:00;3.40;;;1.30;;
58697;SDS011;44475;53.206;-6.106;2023-02-04T08:51:27;2.58;;;1.30;;
58697;SDS011;44475;53.206;-6.106;2023-02-04T08:53:53;2.45;;;1.25;;
58697;SDS011;44475;53.206;-6.106;2023-02-04T08:56:20;2.50;;;1.10;;
58697;SDS011;44475;53.206;-6.106;2023-02-04T08:58:46;2.42;;;1.30;;
58697;SDS011;44475;53.206;-6.106;2023-02-04T09:01:13;2.30;;;1.20;;
58697;SDS011;44475;53.206;-6.106;2023-02-04T09:03:39;1.85;;;1.20;;
58697;SDS011;44475;53.206;-6.106;2023-02-04T09:06:06;1.90;;;1.10;;
58697;SDS011;44475;53.206;-6.106;2023-02-04T09:08:32;2.50;;;1.17;;
58697;SDS011;44475;53.206;-6.106;2023-02-04T09:10:59;2.38;;;1.10;;
58697;SDS011;44475;53.206;-6.106;2023-02-04T09:13:25;3.03;;;1.30;;
58697;SDS011;44475;53.206;-6.106;2023-02-04T09:15:52;2.47;;;1.30;;
58697;SDS011;44475;53.206;-6.106;2023-02-04T09:18:18;2.58;;;1.30;;
58697;SDS011;44475;53.206;-6.106;2023-02-04T09:20:47;2.28;;;1.20;;
58697;SDS011;44475;53.206;-6.106;2023-02-04T09:23:13;2.03;;;1.10;;
58697;SDS011;44475;53.206;-6.106;2023-02-04T09:25:41;2.67;;;1.20;;
58697;SDS011;44475;53.206;-6.106;2023-02-04T09:28:08;1.92;;;1.38;;
58697;SDS011;44475;53.206;-6.106;2023-02-04T09:30:36;1.98;;;1.30;;
58697;SDS011;44475;53.206;-6.106;2023-02-04T09:33:03;1.85;;;1.20;;
58697;SDS011;44475;53.206;-6.106;2023-02-04T09:35:30;2.25;;;1.20;;
58697;SDS011;44475;53.206;-6.106;2023-02-04T09:37:56;2.75;;;1.25;;
58697;SDS011;44475;53.206;-6.106;2023-02-04T09:40:22;2.35;;;1.30;;
58697;SDS011;44475;53.206;-6.106;2023-02-04T09:42:53;3.08;;;1.20;;
58697;SDS011;44475;53.206;-6.106;2023-02-04T09:45:20;2.65;;;1.35;;
58697;SDS011;44475;53.206;-6.106;2023-02-04T09:47:50;3.58;;;1.30;;
58697;SDS011;44475;53.206;-6.106;2023-02-04T09:50:19;1.42;;;1.13;;
58697;SDS011;44475;53.206;-6.106;2023-02-04T09:52:49;1.48;;;1.13;;
58697;SDS011;44475;53.206;-6.106;2023-02-04T09:55:18;1.60;;;1.20;;
58697;SDS011;44475;53.206;-6.106;2023-02-04T09:57:46;4.35;;;1.30;;
58697;SDS011;44475;53.206;-6.106;2023-02-04T10:00:17;3.80;;;1.20;;
58697;SDS011;44475;53.206;-6.106;2023-02-04T10:02:48;1.65;;;1.10;;
58697;SDS011;44475;53.206;-6.106;2023-02-04T10:05:18;1.38;;;1.23;;
58697;SDS011;44475;53.206;-6.106;2023-02-04T10:07:55;3.58;;;1.25;;
58697;SDS011;44475;53.206;-6.106;2023-02-04T10:10:23;3.08;;;1.27;;
58697;SDS011;44475;53.206;-6.106;2023-02-04T10:12:57;1.63;;;1.20;;
58697;SDS011;44475;53.206;-6.106;2023-02-04T10:15:26;1.20;;;1.10;;
58697;SDS011;44475;53.206;-6.106;2023-02-04T10:17:54;2.17;;;1.33;;
58697;SDS011;44475;53.206;-6.106;2023-02-04T10:22:52;1.67;;;1.25;;
58697;SDS011;44475;53.206;-6.106;2023-02-04T10:25:21;1.60;;;1.23;;
58697;SDS011;44475;53.206;-6.106;2023-02-04T10:27:56;2.67;;;0.95;;
58697;SDS011;44475;53.206;-6.106;2023-02-04T10:30:24;4.18;;;1.30;;
58697;SDS011;44475;53.206;-6.106;2023-02-04T10:32:51;2.60;;;1.33;;
58697;SDS011;44475;53.206;-6.106;2023-02-04T10:35:19;3.03;;;1.17;;
58697;SDS011;44475;53.206;-6.106;2023-02-04T10:37:46;4.28;;;1.20;;
58697;SDS011;44475;53.206;-6.106;2023-02-04T10:42:56;2.33;;;1.20;;
58697;SDS011;44475;53.206;-6.106;2023-02-04T10:45:26;2.13;;;1.35;;
58697;SDS011;44475;53.206;-6.106;2023-02-04T10:47:55;3.53;;;1.40;;
58697;SDS011;44475;53.206;-6.106;2023-02-04T10:50:23;2.42;;;1.20;;
58697;SDS011;44475;53.206;-6.106;2023-02-04T10:52:57;3.67;;;1.25;;
58697;SDS011;44475;53.206;-6.106;2023-02-04T10:55:44;1.65;;;1.10;;
58697;SDS011;44475;53.206;-6.106;2023-02-04T10:58:17;3.63;;;1.50;;
58697;SDS011;44475;53.206;-6.106;2023-02-04T11:00:50;4.28;;;1.35;;
58697;SDS011;44475;53.206;-6.106;2023-02-04T11:03:21;1.80;;;1.10;;
58697;SDS011;44475;53.206;-6.106;2023-02-04T11:05:48;2.42;;;1.30;;
58697;SDS011;44475;53.206;-6.106;2023-02-04T11:08:24;3.03;;;1.20;;
58697;SDS011;44475;53.206;-6.106;2023-02-04T11:11:03;2.03;;;1.35;;
58697;SDS011;44475;53.206;-6.106;2023-02-04T11:21:20;3.80;;;1.30;;
58697;SDS011;44475;53.206;-6.106;2023-02-04T11:23:49;3.05;;;1.48;;
58697;SDS011;44475;53.206;-6.106;2023-02-04T11:26:33;2.38;;;1.40;;
58697;SDS011;44475;53.206;-6.106;2023-02-04T11:39:21;1.25;;;1.15;;
58697;SDS011;44475;53.206;-6.106;2023-02-04T11:45:21;3.42;;;1.27;;
58697;SDS011;44475;53.206;-6.106;2023-02-04T11:47:50;1.88;;;1.30;;
58697;SDS011;44475;53.206;-6.106;2023-02-04T11:52:53;1.98;;;1.23;;
58697;SDS011;44475;53.206;-6.106;2023-02-04T11:55:21;1.33;;;1.20;;
58697;SDS011;44475;53.206;-6.106;2023-02-04T11:57:50;2.70;;;1.30;;
58697;SDS011;44475;53.206;-6.106;2023-02-04T12:00:19;1.85;;;1.40;;
58697;SDS011;44475;53.206;-6.106;2023-02-04T12:02:48;1.83;;;1.30;;
58697;SDS011;44475;53.206;-6.106;2023-02-04T12:05:19;2.85;;;1.38;;
58697;SDS011;44475;53.206;-6.106;2023-02-04T12:07:48;2.15;;;1.20;;
58697;SDS011;44475;53.206;-6.106;2023-02-04T12:12:41;2.30;;;1.10;;
58697;SDS011;44475;53.206;-6.106;2023-02-04T12:15:14;2.33;;;1.13;;
58697;SDS011;44475;53.206;-6.106;2023-02-04T12:17:45;1.95;;;1.23;;
58697;SDS011;44475;53.206;-6.106;2023-02-04T12:20:12;1.35;;;1.20;;
58697;SDS011;44475;53.206;-6.106;2023-02-04T12:22:38;2.70;;;1.35;;
58697;SDS011;44475;53.206;-6.106;2023-02-04T12:25:04;2.30;;;1.33;;
58697;SDS011;44475;53.206;-6.106;2023-02-04T12:27:31;2.00;;;1.20;;
58697;SDS011;44475;53.206;-6.106;2023-02-04T12:29:57;2.40;;;1.35;;
58697;SDS011;44475;53.206;-6.106;2023-02-04T12:32:23;1.42;;;1.20;;
58697;SDS011;44475;53.206;-6.106;2023-02-04T12:34:50;1.63;;;1.33;;
58697;SDS011;44475;53.206;-6.106;2023-02-04T12:37:16;2.90;;;1.30;;
58697;SDS011;44475;53.206;-6.106;2023-02-04T12:39:42;2.38;;;1.00;;
58697;SDS011;44475;53.206;-6.106;2023-02-04T12:42:08;3.80;;;1.13;;
58697;SDS011;44475;53.206;-6.106;2023-02-04T12:44:34;2.22;;;1.20;;
58697;SDS011;44475;53.206;-6.106;2023-02-04T12:47:01;4.57;;;1.30;;
58697;SDS011;44475;53.206;-6.106;2023-02-04T12:49:27;4.60;;;1.40;;
58697;SDS011;44475;53.206;-6.106;2023-02-04T12:51:53;5.05;;;1.30;;
58697;SDS011;44475;53.206;-6.106;2023-02-04T12:54:23;6.63;;;1.40;;
58697;SDS011;44475;53.206;-6.106;2023-02-04T12:56:49;3.83;;;1.20;;
58697;SDS011;44475;53.206;-6.106;2023-02-04T12:59:17;4.78;;;1.58;;
58697;SDS011;44475;53.206;-6.106;2023-02-04T13:01:44;4.60;;;1.40;;
58697;SDS011;44475;53.206;-6.106;2023-02-04T13:04:10;6.25;;;1.30;;
58697;SDS011;44475;53.206;-6.106;2023-02-04T13:06:36;8.13;;;1.40;;
58697;SDS011;44475;53.206;-6.106;2023-02-04T13:09:02;7.50;;;1.63;;
58697;SDS011;44475;53.206;-6.106;2023-02-04T13:11:29;11.02;;;1.65;;
58697;SDS011;44475;53.206;-6.106;2023-02-04T13:13:55;6.32;;;1.48;;
58697;SDS011;44475;53.206;-6.106;2023-02-04T13:16:21;9.65;;;1.50;;
58697;SDS011;44475;53.206;-6.106;2023-02-04T13:18:49;6.47;;;1.40;;
58697;SDS011;44475;53.206;-6.106;2023-02-04T13:21:15;7.72;;;1.60;;
58697;SDS011;44475;53.206;-6.106;2023-02-04T13:23:41;6.35;;;1.30;;
58697;SDS011;44475;53.206;-6.106;2023-02-04T13:26:08;6.45;;;2.00;;
58697;SDS011;44475;53.206;-6.106;2023-02-04T13:28:35;3.72;;;1.30;;
58697;SDS011;44475;53.206;-6.106;2023-02-04T13:31:01;4.63;;;1.40;;
58697;SDS011;44475;53.206;-6.106;2023-02-04T13:33:28;5.45;;;1.30;;
58697;SDS011;44475;53.206;-6.106;2023-02-04T13:35:54;4.40;;;1.40;;
58697;SDS011;44475;53.206;-6.106;2023-02-04T13:38:21;4.60;;;1.52;;
58697;SDS011;44475;53.206;-6.106;2023-02-04T13:40:47;7.55;;;1.50;;
58697;SDS011;44475;53.206;-6.106;2023-02-04T13:43:14;4.90;;;1.52;;
58697;SDS011;44475;53.206;-6.106;2023-02-04T13:45:40;8.13;;;1.50;;
58697;SDS011;44475;53.206;-6.106;2023-02-04T13:48:11;6.30;;;1.30;;
58697;SDS011;44475;53.206;-6.106;2023-02-04T13:50:37;3.63;;;1.27;;
58697;SDS011;44475;53.206;-6.106;2023-02-04T13:53:04;2.10;;;1.20;;
58697;SDS011;44475;53.206;-6.106;2023-02-04T13:55:30;3.45;;;1.40;;
58697;SDS011;44475;53.206;-6.106;2023-02-04T13:57:56;2.35;;;1.27;;
58697;SDS011;44475;53.206;-6.106;2023-02-04T14:00:23;3.08;;;1.10;;
58697;SDS011;44475;53.206;-6.106;2023-02-04T14:02:49;3.22;;;1.30;;
58697;SDS011;44475;53.206;-6.106;2023-02-04T14:05:15;3.25;;;1.30;;
58697;SDS011;44475;53.206;-6.106;2023-02-04T14:07:41;3.40;;;1.35;;
58697;SDS011;44475;53.206;-6.106;2023-02-04T14:10:07;2.45;;;1.30;;
58697;SDS011;44475;53.206;-6.106;2023-02-04T14:12:34;2.75;;;1.20;;
58697;SDS011;44475;53.206;-6.106;2023-02-04T14:15:00;5.45;;;1.50;;
58697;SDS011;44475;53.206;-6.106;2023-02-04T14:17:26;4.53;;;1.30;;
58697;SDS011;44475;53.206;-6.106;2023-02-04T14:19:52;3.38;;;1.38;;
58697;SDS011;44475;53.206;-6.106;2023-02-04T14:22:19;4.05;;;1.10;;
58697;SDS011;44475;53.206;-6.106;2023-02-04T14:24:45;4.43;;;1.30;;
58697;SDS011;44475;53.206;-6.106;2023-02-04T14:27:11;1.88;;;1.38;;
58697;SDS011;44475;53.206;-6.106;2023-02-04T14:29:38;3.17;;;1.20;;
58697;SDS011;44475;53.206;-6.106;2023-02-04T14:32:04;2.45;;;1.05;;
58697;SDS011;44475;53.206;-6.106;2023-02-04T14:34:31;3.08;;;1.23;;
58697;SDS011;44475;53.206;-6.106;2023-02-04T14:36:57;6.22;;;1.17;;
58697;SDS011;44475;53.206;-6.106;2023-02-04T14:39:23;4.78;;;1.55;;
58697;SDS011;44475;53.206;-6.106;2023-02-04T14:41:49;14.13;;;2.10;;
58697;SDS011;44475;53.206;-6.106;2023-02-04T14:44:16;10.95;;;1.73;;
58697;SDS011;44475;53.206;-6.106;2023-02-04T14:46:48;15.52;;;2.20;;
58697;SDS011;44475;53.206;-6.106;2023-02-04T14:49:14;11.45;;;2.22;;
58697;SDS011;44475;53.206;-6.106;2023-02-04T14:51:41;14.63;;;1.85;;
58697;SDS011;44475;53.206;-6.106;2023-02-04T14:54:08;12.77;;;1.90;;
58697;SDS011;44475;53.206;-6.106;2023-02-04T14:56:35;12.20;;;2.15;;
58697;SDS011;44475;53.206;-6.106;2023-02-04T14:59:01;14.23;;;2.10;;
58697;SDS011;44475;53.206;-6.106;2023-02-04T15:01:27;12.88;;;2.13;;
58697;SDS011;44475;53.206;-6.106;2023-02-04T15:03:55;12.23;;;1.98;;
58697;SDS011;44475;53.206;-6.106;2023-02-04T15:06:21;16.92;;;2.33;;